Time;durP1;ratioP1;P1;durP2;ratioP2;P2;SDS_P1;SDS_P2;PMS_P1;PMS_P2;Temp;Humidity;BMP_temperature;BMP_pressure;BME280_temperature;BME280_humidity;BME280_pressure;Samples;Min_cycle;Max_cycle;Signal;HPM_P1;HPM_P2
2021/11/09 00:02:09;;;;;;;10.98;5.65;;;8.60;99.90;;;;;;4993565;28;20363;-75
2021/11/09 00:04:41;;;;;;;10.27;5.75;;;8.60;99.90;;;;;;4994686;28;20434;-76
2021/11/09 00:09:59;;;;;;;11.25;5.65;;;8.50;99.90;;;;;;4994957;28;20122;-75
2021/11/09 00:12:31;;;;;;;13.13;5.75;;;8.50;99.90;;;;;;5025740;28;20011;-75
2021/11/09 00:14:59;;;;;;;19.88;6.25;;;8.50;99.90;;;;;;4994681;28;20026;-75
2021/11/09 00:17:25;;;;;;;9.60;6.15;;;8.50;99.90;;;;;;4994103;28;20500;-75
2021/11/09 00:19:52;;;;;;;15.32;6.57;;;8.50;99.90;;;;;;5026141;28;20029;-76
2021/11/09 00:22:19;;;;;;;14.77;6.18;;;8.40;99.90;;;;;;4992736;28;20062;-76
2021/11/09 00:24:45;;;;;;;14.55;5.93;;;8.40;99.90;;;;;;4994154;28;20022;-76
2021/11/09 00:27:11;;;;;;;16.58;6.35;;;8.40;99.90;;;;;;4994050;28;20026;-75
2021/11/09 00:29:38;;;;;;;15.82;6.40;;;8.30;99.90;;;;;;4994166;28;20023;-75
2021/11/09 00:32:05;;;;;;;14.15;5.65;;;8.30;99.90;;;;;;4993957;28;20367;-75
2021/11/09 00:34:31;;;;;;;13.57;5.72;;;8.30;99.90;;;;;;4992406;28;20073;-76
2021/11/09 00:36:57;;;;;;;13.73;6.10;;;8.30;99.90;;;;;;4994057;28;20022;-75
2021/11/09 00:39:23;;;;;;;11.98;6.15;;;8.30;99.90;;;;;;5024686;28;20455;-76
2021/11/09 00:41:49;;;;;;;13.68;6.40;;;8.20;99.90;;;;;;5025558;28;20022;-75
2021/11/09 00:44:15;;;;;;;12.68;5.95;;;8.30;99.90;;;;;;5025137;28;20366;-75
2021/11/09 00:46:41;;;;;;;12.15;5.95;;;8.30;99.90;;;;;;4992648;28;20442;-75
2021/11/09 00:49:07;;;;;;;18.35;6.78;;;8.30;99.90;;;;;;4994187;28;20092;-75
2021/11/09 00:51:32;;;;;;;14.52;6.47;;;8.20;99.90;;;;;;4993451;28;20034;-76
2021/11/09 00:53:58;;;;;;;11.15;6.00;;;8.30;99.90;;;;;;4993936;28;20026;-75
2021/11/09 00:56:24;;;;;;;10.63;5.75;;;8.30;99.90;;;;;;4993036;28;20060;-75
2021/11/09 00:58:50;;;;;;;13.70;6.10;;;8.20;99.90;;;;;;4993827;28;20072;-75
2021/11/09 01:01:16;;;;;;;14.52;5.75;;;8.20;99.90;;;;;;4993287;28;20023;-75
2021/11/09 01:03:42;;;;;;;14.35;5.47;;;8.20;99.90;;;;;;5025117;28;20014;-75
2021/11/09 01:06:08;;;;;;;12.82;5.95;;;8.20;99.90;;;;;;5024714;28;20439;-75
2021/11/09 01:08:34;;;;;;;10.32;5.45;;;8.10;99.90;;;;;;4992896;28;20506;-77
2021/11/09 01:11:00;;;;;;;12.32;5.75;;;8.20;99.90;;;;;;4993276;28;20018;-76
2021/11/09 01:13:28;;;;;;;11.48;5.75;;;8.20;99.90;;;;;;5024538;28;20022;-76
2021/11/09 01:15:55;;;;;;;14.88;6.18;;;8.10;99.90;;;;;;4992253;28;20014;-76
2021/11/09 01:18:32;;;;;;;11.02;5.63;;;8.10;99.90;;;;;;4991510;28;20026;-76
2021/11/09 01:20:58;;;;;;;11.30;5.82;;;8.10;99.90;;;;;;4993595;28;20026;-75
2021/11/09 01:23:26;;;;;;;13.18;6.50;;;8.10;99.90;;;;;;5024401;28;20026;-75
2021/11/09 01:25:51;;;;;;;11.95;5.85;;;8.10;99.90;;;;;;4991988;28;20057;-75
2021/11/09 01:28:18;;;;;;;13.27;6.25;;;8.10;99.90;;;;;;4991597;28;20022;-76
2021/11/09 01:30:45;;;;;;;11.18;5.70;;;8.10;99.90;;;;;;5024702;28;20025;-76
2021/11/09 01:33:10;;;;;;;9.20;5.70;;;8.10;99.90;;;;;;4992949;28;20025;-75
2021/11/09 01:35:37;;;;;;;16.27;7.13;;;8.00;99.90;;;;;;4992768;28;20405;-75
2021/11/09 01:38:03;;;;;;;15.10;5.75;;;8.00;99.90;;;;;;4991724;28;20019;-76
2021/11/09 01:40:29;;;;;;;14.15;6.57;;;8.00;99.90;;;;;;4991372;28;20030;-76
2021/11/09 01:42:57;;;;;;;10.23;5.80;;;7.90;99.90;;;;;;4991703;28;20315;-75
2021/11/09 01:45:23;;;;;;;10.20;5.57;;;7.90;99.90;;;;;;4992820;28;20030;-75
2021/11/09 01:47:50;;;;;;;11.68;6.25;;;7.90;99.90;;;;;;4992968;28;20470;-75
2021/11/09 01:50:22;;;;;;;15.23;6.65;;;7.90;99.90;;;;;;4991704;28;20022;-76
2021/11/09 01:52:48;;;;;;;13.20;7.15;;;7.90;99.90;;;;;;4991602;28;20019;-76
2021/11/09 01:55:17;;;;;;;11.55;5.80;;;7.90;99.90;;;;;;4993028;28;20446;-76
2021/11/09 01:57:43;;;;;;;12.73;5.97;;;7.90;99.90;;;;;;4992499;28;20042;-76
2021/11/09 02:00:17;;;;;;;8.57;5.72;;;7.90;99.90;;;;;;4992871;28;20033;-76
2021/11/09 02:02:44;;;;;;;18.20;5.72;;;7.80;99.90;;;;;;4992466;28;20022;-76
2021/11/09 02:05:12;;;;;;;11.48;5.95;;;7.80;99.90;;;;;;4992524;28;20022;-76
2021/11/09 02:07:51;;;;;;;8.85;5.60;;;7.80;99.90;;;;;;4992390;28;20026;-75
2021/11/09 02:10:19;;;;;;;14.10;6.13;;;7.80;99.90;;;;;;4992859;28;20053;-75
2021/11/09 02:12:45;;;;;;;13.68;6.45;;;7.70;99.90;;;;;;4991293;28;20029;-75
2021/11/09 02:15:12;;;;;;;13.23;5.65;;;7.70;99.90;;;;;;4991535;28;20101;-76
2021/11/09 02:17:39;;;;;;;12.68;6.00;;;7.70;99.90;;;;;;4992795;28;20081;-75
2021/11/09 02:20:07;;;;;;;9.82;5.40;;;7.70;99.90;;;;;;4997330;28;20022;-75
2021/11/09 02:22:34;;;;;;;10.88;6.53;;;7.70;99.90;;;;;;4996904;28;20030;-76
2021/11/09 02:25:05;;;;;;;14.63;5.82;;;7.60;99.90;;;;;;4995952;28;20025;-75
2021/11/09 02:27:31;;;;;;;10.02;5.88;;;7.60;99.90;;;;;;4996363;28;20030;-75
2021/11/09 02:29:57;;;;;;;14.13;5.97;;;7.60;99.90;;;;;;4995391;28;20019;-76
2021/11/09 02:32:23;;;;;;;12.15;5.85;;;7.60;99.90;;;;;;4996294;28;20021;-76
2021/11/09 02:34:49;;;;;;;13.80;5.82;;;7.50;99.90;;;;;;4996510;28;20019;-75
2021/11/09 02:37:16;;;;;;;13.23;5.57;;;7.50;99.90;;;;;;4996645;28;20033;-76
2021/11/09 02:39:42;;;;;;;14.50;5.70;;;7.50;99.90;;;;;;4995534;28;20105;-76
2021/11/09 02:42:16;;;;;;;13.15;5.47;;;7.50;99.90;;;;;;4996404;28;20465;-76
2021/11/09 02:44:54;;;;;;;10.73;5.50;;;7.50;99.90;;;;;;4995865;28;20297;-75
2021/11/09 02:47:23;;;;;;;11.85;6.10;;;7.50;99.90;;;;;;4996099;28;20029;-76
2021/11/09 02:50:25;;;;;;;12.43;6.40;;;7.40;99.90;;;;;;4996156;28;20020;-75
2021/11/09 02:52:50;;;;;;;11.63;6.15;;;7.40;99.90;;;;;;4997517;28;20026;-75
2021/11/09 02:55:18;;;;;;;13.13;5.90;;;7.40;99.90;;;;;;5027909;28;20083;-76
2021/11/09 02:57:55;;;;;;;9.50;5.45;;;7.40;99.90;;;;;;4995112;28;20096;-76
2021/11/09 03:00:28;;;;;;;10.55;5.70;;;7.30;99.90;;;;;;5027741;28;20058;-76
2021/11/09 03:03:07;;;;;;;11.77;5.68;;;7.40;99.90;;;;;;5027830;28;20049;-75
2021/11/09 03:10:49;;;;;;;13.65;5.25;;;7.30;99.90;;;;;;4995519;28;20105;-75
2021/11/09 03:13:15;;;;;;;9.40;5.25;;;7.30;99.90;;;;;;4994470;28;20432;-75
2021/11/09 03:15:40;;;;;;;12.43;5.53;;;7.30;99.90;;;;;;4995019;28;20537;-75
2021/11/09 03:18:10;;;;;;;10.93;5.53;;;7.30;99.90;;;;;;5027090;28;20022;-75
2021/11/09 03:45:25;;;;;;;11.32;5.07;;;7.20;99.90;;;;;;4999791;28;20113;-76
2021/11/09 03:47:56;;;;;;;12.15;6.32;;;7.10;99.90;;;;;;4994663;28;20074;-75
2021/11/09 03:50:26;;;;;;;11.65;5.97;;;7.10;99.90;;;;;;5026672;28;20446;-75
2021/11/09 03:55:27;;;;;;;11.75;5.47;;;7.10;99.90;;;;;;4994985;28;20450;-76
2021/11/09 03:58:03;;;;;;;8.98;4.93;;;7.10;99.90;;;;;;4994448;28;20073;-77
2021/11/09 04:00:40;;;;;;;16.30;5.95;;;7.10;99.90;;;;;;4994504;28;20076;-76
2021/11/09 04:05:43;;;;;;;12.05;5.65;;;7.00;99.90;;;;;;4994409;28;20033;-75
2021/11/09 04:13:42;;;;;;;8.13;5.05;;;7.00;99.90;;;;;;4994712;28;19968;-76
2021/11/09 04:18:44;;;;;;;13.55;5.93;;;6.90;99.90;;;;;;4994082;28;20100;-76
2021/11/09 04:29:11;;;;;;;10.60;5.18;;;6.90;99.90;;;;;;4993997;28;20092;-76
2021/11/09 04:32:00;;;;;;;12.35;5.68;;;6.90;99.90;;;;;;4993839;28;20461;-77
2021/11/09 04:48:20;;;;;;;12.95;6.35;;;6.80;99.90;;;;;;4992701;28;20044;-76
2021/11/09 05:11:26;;;;;;;10.70;6.32;;;6.60;99.90;;;;;;4973778;28;20118;-77
2021/11/09 05:13:52;;;;;;;10.88;5.70;;;6.60;99.90;;;;;;5021011;28;20026;-78
2021/11/09 05:16:18;;;;;;;13.05;5.80;;;6.60;99.90;;;;;;4993306;28;20022;-78
2021/11/09 05:18:43;;;;;;;10.00;6.15;;;6.60;99.90;;;;;;4992887;28;20489;-77
2021/11/09 05:21:09;;;;;;;11.13;5.75;;;6.60;99.90;;;;;;4993306;28;20070;-78
2021/11/09 05:23:35;;;;;;;10.48;5.95;;;6.60;99.90;;;;;;4992868;28;20375;-77
2021/11/09 05:26:02;;;;;;;11.13;5.82;;;6.60;99.90;;;;;;4993429;28;20018;-78
2021/11/09 05:28:28;;;;;;;14.07;7.03;;;6.60;99.90;;;;;;4993300;28;20097;-78
2021/11/09 05:30:54;;;;;;;14.18;7.93;;;6.50;99.90;;;;;;4991126;28;20102;-77
2021/11/09 05:33:22;;;;;;;13.18;7.15;;;6.50;99.90;;;;;;4991830;28;20497;-78
2021/11/09 05:35:50;;;;;;;13.68;6.80;;;6.50;99.90;;;;;;4990454;28;20337;-77
2021/11/09 05:38:19;;;;;;;10.68;6.78;;;6.50;99.90;;;;;;4992677;28;20037;-77
2021/11/09 05:40:53;;;;;;;10.20;5.32;;;6.50;99.90;;;;;;4990781;28;20026;-77
2021/11/09 05:43:19;;;;;;;10.45;5.68;;;6.50;99.90;;;;;;4991767;28;20034;-77
2021/11/09 05:45:44;;;;;;;14.70;6.00;;;6.40;99.90;;;;;;4991988;28;20026;-76
2021/11/09 05:48:11;;;;;;;16.42;6.68;;;6.50;99.90;;;;;;4991715;28;20029;-76
2021/11/09 05:50:37;;;;;;;14.57;5.78;;;6.40;99.90;;;;;;4992527;28;20030;-76
2021/11/09 05:53:03;;;;;;;17.75;6.75;;;6.40;99.90;;;;;;4992842;28;20027;-76
2021/11/09 05:55:29;;;;;;;15.55;6.93;;;6.40;99.90;;;;;;4991798;28;20018;-77
2021/11/09 05:57:54;;;;;;;12.82;6.93;;;6.40;99.90;;;;;;4992194;28;20425;-77
2021/11/09 06:00:20;;;;;;;14.52;6.43;;;6.40;99.90;;;;;;4993015;28;20022;-77
2021/11/09 06:02:46;;;;;;;12.20;6.07;;;6.40;99.90;;;;;;4992688;28;20026;-76
2021/11/09 06:05:12;;;;;;;15.13;6.30;;;6.40;99.90;;;;;;4992979;28;20018;-79
2021/11/09 06:07:38;;;;;;;15.02;6.47;;;6.40;99.90;;;;;;4991105;28;20018;-75
2021/11/09 06:10:05;;;;;;;12.43;5.80;;;6.40;99.90;;;;;;4990023;28;20175;-76
2021/11/09 06:12:30;;;;;;;11.55;6.07;;;6.40;99.90;;;;;;4988243;28;20057;-76
2021/11/09 06:14:56;;;;;;;11.63;6.05;;;6.40;99.90;;;;;;4991608;28;20467;-75
2021/11/09 06:17:22;;;;;;;12.73;6.10;;;6.30;99.90;;;;;;4990697;28;20058;-76
2021/11/09 06:19:48;;;;;;;12.57;7.13;;;6.30;99.90;;;;;;4990199;28;20026;-75
2021/11/09 06:22:13;;;;;;;13.77;6.85;;;6.30;99.90;;;;;;5024084;28;20041;-76
2021/11/09 06:24:39;;;;;;;11.23;6.53;;;6.30;99.90;;;;;;4991970;28;20371;-75
2021/11/09 06:27:05;;;;;;;12.63;5.93;;;6.30;99.90;;;;;;5024303;28;20026;-77
2021/11/09 06:29:31;;;;;;;11.18;6.53;;;6.30;99.90;;;;;;4992598;28;20031;-76
2021/11/09 06:31:59;;;;;;;11.43;6.82;;;6.30;99.90;;;;;;4991906;28;20023;-77
2021/11/09 06:34:26;;;;;;;11.05;6.32;;;6.30;99.90;;;;;;5024035;28;20044;-75
2021/11/09 06:36:51;;;;;;;13.30;6.72;;;6.30;99.90;;;;;;4992212;28;20037;-76
2021/11/09 06:39:17;;;;;;;11.98;6.45;;;6.30;99.90;;;;;;4992890;28;20383;-76
2021/11/09 06:41:43;;;;;;;13.45;6.90;;;6.30;99.90;;;;;;4992042;28;20030;-75
2021/11/09 06:44:08;;;;;;;15.93;6.40;;;6.30;99.90;;;;;;4992361;28;20062;-75
2021/11/09 06:46:34;;;;;;;15.77;6.47;;;6.30;99.90;;;;;;4991133;28;20022;-76
2021/11/09 06:49:00;;;;;;;14.27;6.53;;;6.30;99.90;;;;;;4991946;28;20041;-77
2021/11/09 06:51:26;;;;;;;13.18;6.90;;;6.30;99.90;;;;;;4992441;28;20053;-77
2021/11/09 06:53:52;;;;;;;15.32;6.75;;;6.20;99.90;;;;;;4991884;28;20022;-77
2021/11/09 06:56:18;;;;;;;16.10;7.05;;;6.30;99.90;;;;;;4992545;28;20018;-77
2021/11/09 06:58:44;;;;;;;13.73;6.65;;;6.30;99.90;;;;;;4992082;28;20046;-76
2021/11/09 07:01:10;;;;;;;13.10;6.47;;;6.30;99.90;;;;;;4991038;28;20513;-77
2021/11/09 07:03:36;;;;;;;11.93;6.65;;;6.30;99.90;;;;;;4991065;28;20030;-77
2021/11/09 07:06:04;;;;;;;13.45;6.72;;;6.30;99.90;;;;;;4993858;28;20390;-77
2021/11/09 07:08:30;;;;;;;15.07;7.78;;;6.30;99.90;;;;;;5027559;28;20419;-76
2021/11/09 07:10:57;;;;;;;15.45;7.65;;;6.20;99.90;;;;;;4995671;28;20022;-77
2021/11/09 07:13:22;;;;;;;13.68;7.03;;;6.30;99.90;;;;;;5027640;28;20014;-77
2021/11/09 07:15:48;;;;;;;14.55;6.93;;;6.30;99.90;;;;;;4994392;28;20382;-76
2021/11/09 07:18:14;;;;;;;12.30;7.10;;;6.30;99.90;;;;;;5027295;28;20026;-77
2021/11/09 07:20:40;;;;;;;15.40;7.63;;;6.30;99.90;;;;;;4995821;28;20030;-77
2021/11/09 07:23:06;;;;;;;12.60;6.90;;;6.30;99.90;;;;;;4995006;28;20022;-77
2021/11/09 07:25:32;;;;;;;14.48;7.50;;;6.30;99.90;;;;;;5026941;28;20030;-77
2021/11/09 07:27:58;;;;;;;14.23;7.32;;;6.30;99.90;;;;;;5026619;28;20116;-77
2021/11/09 07:30:28;;;;;;;13.60;7.40;;;6.30;99.90;;;;;;4995399;28;20029;-77
2021/11/09 07:32:55;;;;;;;13.30;7.60;;;6.40;99.90;;;;;;5026473;28;20026;-77
2021/11/09 07:35:20;;;;;;;15.15;7.63;;;6.30;99.90;;;;;;4995311;28;20027;-77
2021/11/09 07:37:46;;;;;;;18.65;7.45;;;6.30;99.90;;;;;;4993552;28;20129;-77
2021/11/09 07:40:13;;;;;;;14.73;7.38;;;6.40;99.90;;;;;;4994884;28;20474;-76
2021/11/09 07:42:47;;;;;;;11.38;7.00;;;6.40;99.90;;;;;;4995098;28;20018;-76
2021/11/09 07:45:18;;;;;;;14.27;7.00;;;6.40;99.90;;;;;;4995192;28;20454;-76
2021/11/09 07:47:44;;;;;;;14.80;7.57;;;6.50;99.90;;;;;;4995011;28;20105;-76
2021/11/09 07:50:10;;;;;;;14.18;8.43;;;6.50;99.90;;;;;;4993612;28;20475;-76
2021/11/09 07:52:36;;;;;;;18.77;8.32;;;6.50;99.90;;;;;;5026506;28;20113;-76
2021/11/09 07:55:06;;;;;;;13.25;7.95;;;6.60;99.90;;;;;;4994338;28;20030;-76
2021/11/09 07:57:42;;;;;;;15.00;7.30;;;6.60;99.90;;;;;;5026075;28;20053;-76
2021/11/09 08:00:21;;;;;;;15.30;7.55;;;6.60;99.90;;;;;;5025888;28;20022;-76
2021/11/09 08:03:01;;;;;;;17.55;8.20;;;6.70;99.90;;;;;;4993048;28;20501;-75
2021/11/09 08:06:13;;;;;;;15.73;7.68;;;6.70;99.90;;;;;;4994751;28;20026;-76
2021/11/09 08:08:22;;;;;;;18.55;7.45;;;6.80;99.90;;;;;;4999112;28;20038;-76
2021/11/09 08:10:48;;;;;;;20.92;7.45;;;6.80;99.90;;;;;;4993906;28;20496;-76
2021/11/09 08:13:14;;;;;;;20.50;7.72;;;6.80;99.90;;;;;;5026120;28;20118;-77
2021/11/09 08:15:40;;;;;;;19.88;8.30;;;6.90;99.90;;;;;;4994654;28;20049;-78
2021/11/09 08:18:06;;;;;;;17.33;7.72;;;6.90;99.90;;;;;;4993708;28;20034;-76
2021/11/09 08:20:32;;;;;;;23.15;9.48;;;6.90;99.90;;;;;;4994558;28;20027;-76
2021/11/09 08:22:58;;;;;;;19.90;8.38;;;7.00;99.90;;;;;;4993949;28;20029;-76
2021/11/09 08:25:24;;;;;;;18.83;7.97;;;7.00;99.90;;;;;;4994602;28;20049;-76
2021/11/09 08:27:50;;;;;;;12.80;6.90;;;7.10;99.90;;;;;;4993593;28;20035;-77
2021/11/09 08:30:15;;;;;;;14.82;7.80;;;7.10;99.90;;;;;;5025740;28;20478;-77
2021/11/09 08:32:45;;;;;;;16.40;7.40;;;7.10;99.90;;;;;;4993085;28;20023;-77
2021/11/09 08:35:13;;;;;;;17.92;6.38;;;7.20;99.90;;;;;;4993965;28;20023;-76
2021/11/09 08:37:40;;;;;;;18.00;7.13;;;7.20;99.90;;;;;;5025580;28;20404;-76
2021/11/09 08:40:15;;;;;;;18.88;8.75;;;7.30;99.90;;;;;;4993647;28;20045;-77
2021/11/09 08:42:47;;;;;;;16.92;8.93;;;7.30;99.90;;;;;;5025635;28;20331;-76
2021/11/09 08:47:49;;;;;;;14.63;7.40;;;7.40;99.90;;;;;;4993975;28;20458;-78
2021/11/09 08:50:17;;;;;;;21.20;8.27;;;7.40;99.90;;;;;;5025812;28;20073;-76
2021/11/09 08:52:44;;;;;;;19.17;9.65;;;7.50;99.90;;;;;;5025278;28;20119;-78
2021/11/09 09:06:00;;;;;;;24.25;9.27;;;7.60;99.90;;;;;;5025355;28;20033;-77
2021/11/09 09:08:26;;;;;;;20.65;10.05;;;7.60;99.90;;;;;;4992410;28;20029;-77
2021/11/09 09:10:52;;;;;;;23.42;8.95;;;7.70;99.90;;;;;;4993130;28;20022;-76
2021/11/09 09:13:18;;;;;;;18.55;9.57;;;7.70;99.90;;;;;;4993532;28;20152;-77
2021/11/09 09:15:44;;;;;;;18.13;8.30;;;7.80;99.90;;;;;;4993410;28;20022;-77
2021/11/09 09:18:10;;;;;;;18.15;8.27;;;7.80;99.90;;;;;;4992861;28;20053;-77
2021/11/09 09:20:45;;;;;;;22.40;8.38;;;7.90;99.90;;;;;;4992048;28;20050;-77
2021/11/09 09:23:15;;;;;;;15.50;8.63;;;7.90;99.90;;;;;;4992467;28;20041;-77
2021/11/09 09:55:40;;;;;;;20.55;8.90;;;8.50;99.90;;;;;;4992329;28;20120;-77
2021/11/09 09:57:58;;;;;;;16.80;8.95;;;8.60;99.90;;;;;;4993517;28;20050;-77
2021/11/09 10:00:24;;;;;;;17.23;9.07;;;8.60;99.90;;;;;;4992709;28;20474;-77
2021/11/09 10:02:53;;;;;;;15.63;8.52;;;8.60;99.90;;;;;;4992495;28;20026;-77
2021/11/09 10:05:21;;;;;;;21.80;10.52;;;8.70;99.90;;;;;;4993091;28;20447;-77
2021/11/09 10:07:56;;;;;;;20.20;9.63;;;8.70;99.70;;;;;;4992667;28;20023;-77
2021/11/09 10:10:33;;;;;;;17.48;8.80;;;8.80;99.70;;;;;;4992816;28;20054;-77
2021/11/09 10:13:09;;;;;;;20.25;9.35;;;8.80;99.70;;;;;;4991063;28;20414;-77
2021/11/09 10:15:37;;;;;;;14.75;6.90;;;8.90;99.60;;;;;;4992910;28;20086;-77
2021/11/09 10:18:10;;;;;;;19.05;8.30;;;8.90;99.60;;;;;;5023408;28;20109;-77
2021/11/09 10:20:46;;;;;;;15.63;8.73;;;9.00;99.60;;;;;;4992442;28;20038;-77
2021/11/09 10:23:18;;;;;;;14.98;6.93;;;9.00;99.60;;;;;;4992038;28;20092;-77
2021/11/09 10:25:44;;;;;;;19.92;8.05;;;9.10;99.50;;;;;;4991450;28;20390;-77
2021/11/09 10:28:19;;;;;;;18.50;9.45;;;9.10;99.40;;;;;;4990884;28;20435;-76
2021/11/09 10:30:46;;;;;;;18.55;8.65;;;9.20;99.20;;;;;;4991062;28;20109;-75
2021/11/09 10:33:16;;;;;;;12.68;7.30;;;9.30;99.20;;;;;;4992209;28;20026;-77
2021/11/09 10:35:43;;;;;;;15.43;7.72;;;9.30;99.10;;;;;;5023802;28;20019;-77
2021/11/09 10:38:10;;;;;;;15.18;7.88;;;9.40;99.10;;;;;;4992242;28;20022;-77
2021/11/09 10:40:49;;;;;;;16.05;7.40;;;9.50;99.10;;;;;;4995424;28;20031;-76
2021/11/09 10:43:19;;;;;;;10.30;6.45;;;9.70;99.20;;;;;;4994510;28;20114;-78
2021/11/09 10:45:45;;;;;;;13.45;7.32;;;9.80;98.70;;;;;;5027777;28;20113;-77
2021/11/09 10:48:16;;;;;;;16.58;8.02;;;10.00;98.50;;;;;;4995421;28;20120;-78
2021/11/09 10:50:43;;;;;;;;;;;10.10;98.20;;;;;;4996220;28;20031;-76
2021/11/09 10:53:20;;;;;;;15.98;7.70;;;10.20;98.20;;;;;;5027195;28;20346;-77
2021/11/09 10:58:55;;;;;;;19.63;7.88;;;10.50;97.40;;;;;;4996212;28;20065;-75
2021/11/09 11:06:29;;;;;;;12.35;5.63;;;10.90;96.80;;;;;;4995349;28;20034;-77
2021/11/09 11:09:07;;;;;;;13.02;6.00;;;11.10;97.00;;;;;;4996080;28;20018;-77
2021/11/09 11:11:45;;;;;;;15.45;6.68;;;11.20;97.00;;;;;;4995779;28;20097;-77
2021/11/09 11:14:22;;;;;;;18.42;7.40;;;11.40;96.80;;;;;;4995176;28;20076;-76
2021/11/09 11:16:49;;;;;;;11.15;5.50;;;11.50;96.60;;;;;;4995679;28;20045;-76
2021/11/09 11:19:20;;;;;;;16.42;6.43;;;11.60;96.60;;;;;;4995126;28;20070;-76
2021/11/09 11:21:47;;;;;;;13.60;6.70;;;11.70;96.30;;;;;;4995386;28;20077;-76
2021/11/09 11:24:14;;;;;;;11.70;5.20;;;11.70;96.30;;;;;;4994949;28;20028;-76
2021/11/09 11:26:41;;;;;;;15.85;5.80;;;11.80;96.00;;;;;;5027008;28;20036;-76
2021/11/09 11:29:08;;;;;;;13.93;5.70;;;11.80;96.00;;;;;;4994521;28;20042;-76
2021/11/09 11:31:34;;;;;;;14.07;6.00;;;11.90;95.90;;;;;;5027151;28;20025;-76
2021/11/09 11:34:00;;;;;;;16.10;6.70;;;11.90;95.90;;;;;;4994862;28;20084;-73
2021/11/09 11:36:26;;;;;;;23.45;6.53;;;11.90;95.60;;;;;;4995936;28;20022;-76
2021/11/09 11:38:59;;;;;;;10.65;6.15;;;11.80;95.50;;;;;;5027882;28;20037;-76
2021/11/09 11:41:34;;;;;;;10.75;5.63;;;11.80;95.20;;;;;;4995284;28;20026;-76
2021/11/09 11:44:02;;;;;;;14.40;6.55;;;11.80;95.20;;;;;;4996656;28;20033;-76
2021/11/09 11:46:34;;;;;;;12.75;6.30;;;11.80;95.50;;;;;;4995441;28;20109;-76
2021/11/09 11:49:18;;;;;;;10.85;5.82;;;11.80;94.70;;;;;;4995346;28;20109;-75
2021/11/09 11:51:46;;;;;;;17.73;6.78;;;11.70;94.60;;;;;;5026398;28;20030;-76
2021/11/09 11:54:16;;;;;;;9.68;5.43;;;11.60;94.60;;;;;;5025783;28;20364;-77
2021/11/09 11:56:45;;;;;;;12.40;6.28;;;11.60;94.50;;;;;;4992954;28;20069;-77
2021/11/09 11:59:23;;;;;;;15.48;5.85;;;11.60;94.40;;;;;;5025995;28;20030;-76
2021/11/09 12:01:59;;;;;;;11.20;5.07;;;11.60;94.40;;;;;;5026327;28;20090;-76
2021/11/09 12:04:48;;;;;;;13.77;5.18;;;11.70;94.40;;;;;;4994500;28;20030;-76
2021/11/09 12:07:16;;;;;;;12.48;5.78;;;11.70;94.40;;;;;;5025803;28;20068;-76
2021/11/09 12:09:48;;;;;;;17.80;7.13;;;11.80;94.40;;;;;;5026142;28;20026;-76
2021/11/09 12:12:23;;;;;;;13.88;5.70;;;11.80;94.10;;;;;;4993976;28;20386;-75
2021/11/09 12:15:01;;;;;;;12.20;4.93;;;11.80;94.20;;;;;;5026367;28;20423;-76
2021/11/09 12:17:44;;;;;;;14.15;6.00;;;11.80;94.20;;;;;;4993786;28;20492;-76
2021/11/09 12:20:14;;;;;;;14.98;5.50;;;11.90;94.20;;;;;;4992755;28;20026;-77
2021/11/09 12:22:50;;;;;;;13.57;5.03;;;11.80;94.00;;;;;;5026010;28;20037;-77
2021/11/09 12:25:22;;;;;;;18.00;5.65;;;11.90;94.10;;;;;;4993884;28;20030;-77
2021/11/09 12:27:54;;;;;;;10.35;4.78;;;11.90;93.90;;;;;;4994453;28;20034;-77
2021/11/09 12:30:32;;;;;;;14.32;5.43;;;11.80;94.00;;;;;;4994016;28;20029;-77
2021/11/09 12:33:16;;;;;;;13.85;4.95;;;11.80;94.10;;;;;;4994331;28;20038;-77
2021/11/09 12:35:47;;;;;;;10.48;4.88;;;11.80;94.10;;;;;;4994248;28;20509;-77
2021/11/09 12:38:21;;;;;;;9.55;4.60;;;11.70;94.00;;;;;;4993610;28;20070;-77
2021/11/09 12:40:51;;;;;;;16.45;4.90;;;11.70;94.10;;;;;;4994241;28;20041;-76
2021/11/09 12:43:32;;;;;;;11.30;4.80;;;11.70;94.10;;;;;;4993535;28;20023;-76
2021/11/09 12:46:11;;;;;;;13.52;5.18;;;11.70;93.90;;;;;;4994172;28;20038;-77
2021/11/09 12:48:53;;;;;;;18.95;5.43;;;11.70;93.80;;;;;;4992826;28;20030;-78
2021/11/09 12:51:23;;;;;;;10.65;5.03;;;11.60;93.70;;;;;;4992298;28;20037;-77
2021/11/09 12:53:50;;;;;;;10.38;4.45;;;11.60;93.60;;;;;;5025556;28;20105;-78
2021/11/09 12:56:22;;;;;;;11.57;4.72;;;11.60;93.70;;;;;;4993647;28;20427;-75
2021/11/09 12:58:53;;;;;;;11.90;5.32;;;11.60;93.70;;;;;;4994349;28;20042;-76
2021/11/09 13:01:35;;;;;;;;;;;11.60;93.40;;;;;;5025244;28;20125;-76
2021/11/09 13:04:13;;;;;;;15.63;5.22;;;11.60;93.20;;;;;;4992441;28;20263;-75
2021/11/09 13:09:22;;;;;;;8.88;4.72;;;11.50;93.40;;;;;;4993224;28;20082;-77
2021/11/09 13:12:00;;;;;;;14.07;5.20;;;11.50;93.50;;;;;;5025118;28;20022;-77
2021/11/09 13:14:57;;;;;;;15.07;5.68;;;11.60;93.60;;;;;;4993316;28;20262;-76
2021/11/09 13:17:35;;;;;;;8.95;4.07;;;11.60;93.70;;;;;;4993383;28;20034;-76
2021/11/09 13:21:05;;;;;;;12.82;5.30;;;11.60;93.80;;;;;;5025185;28;20123;-76
2021/11/09 13:23:05;;;;;;;13.32;4.97;;;11.60;93.90;;;;;;4989034;28;20117;-76
2021/11/09 13:25:41;;;;;;;8.68;4.10;;;11.60;93.90;;;;;;4991754;28;20085;-76
2021/11/09 13:28:33;;;;;;;8.20;4.40;;;11.60;94.00;;;;;;4992922;28;20023;-76
2021/11/09 13:31:07;;;;;;;12.88;5.18;;;11.60;94.00;;;;;;4992258;28;20356;-76
2021/11/09 13:33:36;;;;;;;11.48;4.85;;;11.50;94.00;;;;;;4991978;28;20026;-76
2021/11/09 13:36:03;;;;;;;10.00;4.90;;;11.50;93.80;;;;;;4993217;28;20064;-76
2021/11/09 13:38:40;;;;;;;12.35;5.32;;;11.50;93.90;;;;;;4992869;28;20538;-76
2021/11/09 13:41:18;;;;;;;10.57;4.65;;;11.50;93.90;;;;;;4993672;28;20041;-75
2021/11/09 13:43:54;;;;;;;12.85;5.78;;;11.50;93.80;;;;;;5024963;28;20455;-76
2021/11/09 13:46:30;;;;;;;10.18;4.05;;;11.40;93.60;;;;;;4992632;28;20022;-76
2021/11/09 13:49:02;;;;;;;10.77;4.95;;;11.40;93.70;;;;;;5024528;28;20022;-76
2021/11/09 13:51:31;;;;;;;9.77;4.60;;;11.40;93.60;;;;;;5024395;28;20022;-77
2021/11/09 13:54:05;;;;;;;10.48;4.18;;;11.40;93.70;;;;;;4993158;28;20048;-76
2021/11/09 13:56:31;;;;;;;11.20;4.97;;;11.40;93.60;;;;;;4992452;28;20057;-77
2021/11/09 13:59:01;;;;;;;11.50;5.80;;;11.50;93.60;;;;;;4993218;28;20030;-77
2021/11/09 14:01:39;;;;;;;11.73;4.82;;;11.50;93.60;;;;;;5023968;28;20022;-77
2021/11/09 14:04:19;;;;;;;12.75;5.38;;;11.50;93.40;;;;;;5024385;28;20026;-76
2021/11/09 14:17:41;;;;;;;12.38;4.07;;;11.70;93.20;;;;;;4997239;28;20050;-76
2021/11/09 14:20:09;;;;;;;11.07;3.80;;;11.70;93.20;;;;;;4996835;28;20470;-76
2021/11/09 14:22:35;;;;;;;11.98;3.95;;;11.70;93.20;;;;;;5027821;28;20053;-76
2021/11/09 14:25:04;;;;;;;8.38;3.97;;;11.70;93.20;;;;;;4996525;28;20030;-76
2021/11/09 14:27:39;;;;;;;11.85;3.60;;;11.70;93.20;;;;;;4996373;28;20026;-77
2021/11/09 14:30:07;;;;;;;8.77;3.70;;;11.70;93.30;;;;;;5028550;28;20038;-77
2021/11/09 14:32:39;;;;;;;11.32;3.97;;;11.70;93.30;;;;;;4996274;28;20015;-75
2021/11/09 14:35:18;;;;;;;6.03;3.42;;;11.70;93.30;;;;;;5027955;28;20030;-76
2021/11/09 14:37:52;;;;;;;14.20;3.63;;;11.70;93.20;;;;;;4996580;28;20037;-75
2021/11/09 14:40:18;;;;;;;10.15;3.83;;;11.80;93.20;;;;;;5027495;28;20030;-76
2021/11/09 14:46:03;;;;;;;11.93;4.57;;;11.90;93.00;;;;;;4996090;28;20042;-76
2021/11/09 14:48:19;;;;;;;13.13;4.45;;;11.80;93.00;;;;;;4997062;28;20125;-76
2021/11/09 14:51:05;;;;;;;8.32;4.10;;;11.80;92.80;;;;;;5027834;28;20541;-76
2021/11/09 14:53:41;;;;;;;13.00;4.55;;;11.80;92.70;;;;;;4995848;28;20032;-76
2021/11/09 14:56:12;;;;;;;7.95;3.72;;;11.80;92.60;;;;;;4994833;28;20543;-76
2021/11/09 14:58:40;;;;;;;8.18;3.60;;;11.80;92.60;;;;;;4996108;28;20054;-76
2021/11/09 15:01:41;;;;;;;7.82;3.63;;;11.70;92.60;;;;;;4994877;28;20467;-76
2021/11/09 15:04:25;;;;;;;10.02;3.17;;;11.70;92.70;;;;;;4994920;28;20030;-75
2021/11/09 15:28:10;;;;;;;6.07;2.58;;;11.60;93.10;;;;;;4995701;28;20113;-76
2021/11/09 15:30:43;;;;;;;9.00;3.10;;;11.60;93.20;;;;;;5026610;28;20045;-76
2021/11/09 15:33:19;;;;;;;6.53;2.70;;;11.60;93.30;;;;;;4995887;28;20021;-76
2021/11/09 15:36:42;;;;;;;9.15;3.55;;;11.60;93.40;;;;;;4995424;28;20069;-77
2021/11/09 15:38:31;;;;;;;7.03;3.00;;;11.60;93.40;;;;;;4993818;28;20038;-76
2021/11/09 15:40:56;;;;;;;8.15;3.55;;;11.50;93.40;;;;;;4994135;28;20022;-76
2021/11/09 15:43:23;;;;;;;6.72;3.17;;;11.50;93.50;;;;;;4994639;28;20027;-76
2021/11/09 15:45:50;;;;;;;7.43;3.50;;;11.50;93.80;;;;;;4995231;28;20026;-76
2021/11/09 15:48:16;;;;;;;8.43;3.15;;;11.50;93.60;;;;;;4995068;28;20019;-76
2021/11/09 15:50:42;;;;;;;10.07;3.42;;;11.50;93.70;;;;;;4995362;28;20026;-76
2021/11/09 15:53:08;;;;;;;9.75;3.42;;;11.40;93.80;;;;;;4995304;28;20023;-77
2021/11/09 15:55:34;;;;;;;7.40;3.35;;;11.30;93.80;;;;;;5026072;28;20025;-76
2021/11/09 15:58:00;;;;;;;7.05;3.17;;;11.30;93.90;;;;;;4994574;28;20057;-76